Hlavní strana
METAR-TAF:

METAR-TAF

Letiště :

Letiště Louisville

Louisville, Kentucky, Spojené státy americké

zeměpisná šířka: 38-10-38N, zeměpisná délka: 085-43-47W, výška: 151 m

Aktuální stav počasí

Zpráva byla vytvořena před 1 hodinou a 27 minutami, v 02:56 UTC
Jižní vítr 4 kt
Teplota -1°C
Vlhkost vzduchu 46%
Tlak 1034 hPa
Viditelnost: 16.1 km
Jasno

METAR: KSDF 220256Z 17004KT 10SM CLR M01/M11 A3052 RMK AO2 SLP341 T10061111 56008

Čas: 23:23 (04:23 UTC)

Předpověď počasí

Zpráva byla vytvořena před 5 hodinami a 3 minutami, v 23:20 UTC
Předpověď platná od 22 v 00 UTC do 23 v 06 UTC
vítr z různých směrů 4 kt
Viditelnost: 10 km
Jasno
Od 22 v 1500 UTC
Jihojihozápadní vítr 9 kt
Viditelnost: 10 km
Jasno

TAF: KSDF 212320Z 2200/2306 VRB04KT P6SM SKC FM221500 21009KT P6SM SKC

Stav a předpovědi počasí z více než 4 000 letišť (zprávy METAR a TAF).

Červené a žluté tečky na mapě představují dostupné meteorologické stanice.

Když kurzor umístíte na tečku, zobrazí se název stanice.

Pak kliknutím zobrazíte stav a předpověď počasí.

Chcete-li změnit mapu, kliknutím na zelené tlačítko se znaménkem +mapu přiblížíte, kliknutím na zelené tlačítko se znaménkem – mapu oddálíte a kliknutím na zelené šipky přejdete na sousední mapy.


METAR-TAF: